Macksburg, Ohio
Current Conditions -  °F | °C
As of 6:53 PM on Monday 20 Oct 2014 (Local Time) from KPKB Reporting Station
Light Rain Light Rain  
Wind Chill: 54°   Ceiling: 6500
Heat Index: 54°   Visibility: 10mi
Dew Point: 47°   Wind: 0mph
Humidity: 77%   Direction: NA
Pressure: 29.94"   Gusts: NA
Location:  39.63°N, 81.46°W
Report Text: KPKB 202253Z 00000KT 10SM -RA BKN065 OVC080 12/08 A2994 RMK AO2 RAB29 SLP139 P0001 T01220083
Loading
Personal Weather Stations






























Interactive Weather Map
Tropical Storm Tracking
New forecast layout! Learn more

10-Day Weather Forecast

Advertisements
Track Severe Weather on mobile